createdAt,value
2018-09-29T00:00:07.924Z,67.33
2018-09-29T00:02:36.860Z,67.56
2018-09-29T00:05:05.798Z,67.58
2018-09-29T00:07:34.755Z,69.49
2018-09-29T00:10:03.842Z,69.05
2018-09-29T00:12:32.767Z,69.06
2018-09-29T00:15:01.705Z,68.66
2018-09-29T00:17:30.690Z,69.08
2018-09-29T00:19:59.651Z,70.96
2018-09-29T00:22:28.653Z,70.82
2018-09-29T00:24:57.630Z,71.69
2018-09-29T00:27:26.564Z,70.95
2018-09-29T00:29:55.531Z,71.23
2018-09-29T00:32:24.463Z,71.94
2018-09-29T00:34:53.438Z,72.81
2018-09-29T00:37:22.365Z,74.30
2018-09-29T00:39:51.320Z,74.26
2018-09-29T00:42:20.270Z,74.58
2018-09-29T00:44:49.283Z,74.86
2018-09-29T00:47:18.234Z,75.88
2018-09-29T00:49:47.163Z,76.35
2018-09-29T00:52:16.110Z,76.53
2018-09-29T00:54:45.090Z,76.89
2018-09-29T00:57:14.066Z,76.06
2018-09-29T00:59:43.026Z,76.27
2018-09-29T01:02:12.107Z,76.25
2018-09-29T01:04:41.070Z,76.27
2018-09-29T01:07:10.074Z,76.14
2018-09-29T01:09:39.021Z,76.44
2018-09-29T01:12:07.992Z,75.24
2018-09-29T01:14:36.967Z,75.84
2018-09-29T01:17:05.902Z,76.69
2018-09-29T01:19:34.862Z,76.63
2018-09-29T01:22:03.801Z,76.90
2018-09-29T01:24:32.753Z,76.71
2018-09-29T01:27:01.683Z,76.81
2018-09-29T01:29:30.667Z,76.94
2018-09-29T01:31:59.593Z,76.32
2018-09-29T01:34:29.406Z,77.16
2018-09-29T01:36:58.517Z,76.81
2018-09-29T01:39:27.471Z,76.12
2018-09-29T01:41:56.453Z,76.06
2018-09-29T01:44:25.392Z,76.58
2018-09-29T01:46:54.349Z,76.39
2018-09-29T01:49:23.284Z,76.71
2018-09-29T01:51:52.326Z,77.88
2018-09-29T01:54:21.267Z,78.05
2018-09-29T01:56:50.235Z,77.95
2018-09-29T01:59:19.214Z,79.35
2018-09-29T02:01:48.159Z,78.93
2018-09-29T02:04:17.131Z,79.42
2018-09-29T02:06:46.121Z,79.54
2018-09-29T02:09:15.066Z,80.37
2018-09-29T02:11:44.072Z,80.67
2018-09-29T02:14:13.950Z,81.27
2018-09-29T02:16:42.869Z,81.78
2018-09-29T02:19:11.798Z,82.41
2018-09-29T02:21:40.753Z,82.45
2018-09-29T02:24:09.682Z,82.81
2018-09-29T02:26:38.618Z,83.14
2018-09-29T02:29:07.538Z,83.83
2018-09-29T02:31:36.483Z,83.83
2018-09-29T02:34:05.406Z,84.10
2018-09-29T02:36:34.415Z,83.91
2018-09-29T02:39:03.563Z,83.53
2018-09-29T02:41:32.502Z,83.95
2018-09-29T02:44:01.494Z,84.64
2018-09-29T02:46:30.415Z,85.20
2018-09-29T02:48:59.397Z,85.49
2018-09-29T02:51:28.360Z,85.17
2018-09-29T02:53:57.295Z,84.82
2018-09-29T02:56:26.235Z,85.96
2018-09-29T02:58:55.322Z,85.52
2018-09-29T03:01:24.270Z,85.76
2018-09-29T03:03:53.215Z,85.95
2018-09-29T03:06:22.158Z,86.49
2018-09-29T03:08:51.100Z,86.99
2018-09-29T03:11:20.047Z,87.07
2018-09-29T03:13:49.034Z,87.64
2018-09-29T03:16:18.044Z,87.59
2018-09-29T03:18:46.954Z,87.41
2018-09-29T03:21:15.962Z,88.27
2018-09-29T03:23:44.890Z,87.76
2018-09-29T03:26:13.847Z,88.16
2018-09-29T03:28:42.826Z,87.78
2018-09-29T03:31:11.785Z,88.00
2018-09-29T03:33:40.767Z,88.35
2018-09-29T03:36:09.774Z,88.15
2018-09-29T03:38:38.727Z,88.26
2018-09-29T03:41:07.683Z,88.89
2018-09-29T03:43:36.701Z,88.58
2018-09-29T03:46:05.684Z,89.13
2018-09-29T03:48:34.624Z,88.90
2018-09-29T03:51:03.588Z,88.54
2018-09-29T03:53:32.570Z,88.37
2018-09-29T03:56:01.513Z,88.47
2018-09-29T03:58:30.444Z,88.76
2018-09-29T04:00:59.424Z,89.48
2018-09-29T04:03:28.439Z,89.42
2018-09-29T04:05:57.453Z,89.14
2018-09-29T04:08:26.385Z,89.46
2018-09-29T04:10:55.387Z,89.45
2018-09-29T04:13:24.342Z,89.83
2018-09-29T04:15:53.282Z,89.40
2018-09-29T04:18:22.250Z,89.38
2018-09-29T04:20:51.230Z,89.44
2018-09-29T04:23:20.249Z,89.51
2018-09-29T04:25:49.220Z,90.17
2018-09-29T04:28:18.236Z,90.35
2018-09-29T04:30:47.177Z,90.35
2018-09-29T04:33:16.123Z,90.39
2018-09-29T04:35:45.115Z,90.23
2018-09-29T04:38:14.067Z,89.61
2018-09-29T04:40:43.039Z,88.93
2018-09-29T04:43:12.066Z,87.86
2018-09-29T04:45:41.070Z,87.80
2018-09-29T04:48:10.071Z,87.65
2018-09-29T04:50:39.078Z,87.26
2018-09-29T04:53:08.034Z,86.85
2018-09-29T04:55:37.037Z,86.29
2018-09-29T04:58:06.008Z,85.19
2018-09-29T05:00:34.953Z,84.53
2018-09-29T05:03:03.929Z,84.44
2018-09-29T05:05:32.892Z,83.59
2018-09-29T05:08:01.849Z,83.13
2018-09-29T05:10:30.795Z,82.67
2018-09-29T05:12:59.774Z,81.88
2018-09-29T05:15:28.730Z,80.60
2018-09-29T05:17:58.262Z,79.48
2018-09-29T05:20:27.271Z,79.16
2018-09-29T05:22:56.239Z,78.86
2018-09-29T05:25:25.244Z,79.85
2018-09-29T05:27:54.211Z,77.96
2018-09-29T05:30:23.182Z,78.88
2018-09-29T05:32:52.110Z,77.85
2018-09-29T05:35:21.063Z,73.74
2018-09-29T05:37:50.020Z,71.56
2018-09-29T05:40:18.982Z,72.06
2018-09-29T05:42:47.913Z,70.96
2018-09-29T05:45:16.978Z,69.95
2018-09-29T05:47:45.954Z,70.20
2018-09-29T05:50:14.891Z,69.00
2018-09-29T05:52:43.865Z,69.29
2018-09-29T05:55:12.825Z,70.07
2018-09-29T05:57:41.803Z,68.88
2018-09-29T06:00:10.810Z,69.42
2018-09-29T06:02:39.730Z,69.19
2018-09-29T06:05:08.692Z,69.39
2018-09-29T06:07:37.736Z,68.00
2018-09-29T06:10:06.730Z,67.90
2018-09-29T06:12:35.703Z,65.04
2018-09-29T06:15:04.666Z,64.36
2018-09-29T06:17:33.624Z,65.62
2018-09-29T06:20:02.615Z,64.91
2018-09-29T06:22:31.573Z,63.42
2018-09-29T06:25:00.546Z,64.33
2018-09-29T06:27:29.554Z,62.06
2018-09-29T06:29:58.638Z,61.99
2018-09-29T06:32:27.595Z,61.71
2018-09-29T06:34:56.559Z,63.17
2018-09-29T06:37:25.520Z,63.70
2018-09-29T06:39:54.471Z,61.98
2018-09-29T06:42:23.451Z,62.21
2018-09-29T06:44:52.826Z,62.46
2018-09-29T06:47:21.822Z,63.13
2018-09-29T06:49:50.783Z,60.32
2018-09-29T06:52:19.935Z,60.24
2018-09-29T06:54:48.914Z,58.24
2018-09-29T06:57:17.889Z,57.91
2018-09-29T06:59:46.878Z,55.64
2018-09-29T07:02:15.845Z,54.94
2018-09-29T07:04:44.823Z,54.56
2018-09-29T07:07:13.753Z,55.18
2018-09-29T07:09:42.825Z,53.22
2018-09-29T07:12:13.975Z,52.75
2018-09-29T07:14:42.973Z,52.19
2018-09-29T07:17:11.945Z,51.00
2018-09-29T07:19:40.966Z,50.92
2018-09-29T07:22:10.039Z,49.83
2018-09-29T07:24:39.045Z,48.79
2018-09-29T07:27:07.987Z,48.47
2018-09-29T07:29:36.934Z,48.29
2018-09-29T07:32:06.025Z,48.63
2018-09-29T07:34:34.988Z,49.63
2018-09-29T07:37:03.999Z,47.46
2018-09-29T07:39:32.944Z,47.05
2018-09-29T07:42:01.987Z,45.50
2018-09-29T07:44:31.006Z,45.14
2018-09-29T07:47:00.016Z,44.74
2018-09-29T07:49:29.058Z,44.81
2018-09-29T07:51:58.028Z,43.76
2018-09-29T07:54:27.074Z,43.35
2018-09-29T07:56:56.049Z,41.39
2018-09-29T07:59:25.340Z,41.56
2018-09-29T08:01:54.322Z,43.53
2018-09-29T08:04:23.388Z,41.69
2018-09-29T08:06:52.377Z,40.11
2018-09-29T08:09:21.324Z,39.33
2018-09-29T08:11:50.313Z,38.96
2018-09-29T08:14:19.274Z,39.35
2018-09-29T08:16:48.298Z,38.91
2018-09-29T08:19:17.239Z,38.84
2018-09-29T08:21:46.173Z,40.10
2018-09-29T08:24:15.165Z,35.89
2018-09-29T08:26:44.254Z,35.83
2018-09-29T08:29:13.208Z,36.53
2018-09-29T08:31:42.166Z,35.65
2018-09-29T08:34:11.457Z,36.08
2018-09-29T08:36:40.420Z,35.84
2018-09-29T08:39:10.131Z,34.67
2018-09-29T08:41:39.174Z,34.69
2018-09-29T08:44:08.118Z,34.09
2018-09-29T08:46:37.173Z,34.22
2018-09-29T08:49:06.094Z,33.74
2018-09-29T08:51:35.071Z,31.53
2018-09-29T08:54:04.023Z,31.40
2018-09-29T08:56:33.048Z,30.92
2018-09-29T08:59:02.095Z,30.33
2018-09-29T09:01:31.152Z,30.83
2018-09-29T09:04:00.103Z,31.08
2018-09-29T09:06:29.078Z,31.17
2018-09-29T09:08:58.122Z,31.51
2018-09-29T09:11:27.137Z,31.41
2018-09-29T09:13:56.128Z,30.17
2018-09-29T09:16:25.079Z,30.33
2018-09-29T09:18:54.069Z,29.29
2018-09-29T09:21:23.056Z,29.42
2018-09-29T09:23:52.155Z,30.70
2018-09-29T09:26:21.096Z,31.14
2018-09-29T09:28:50.058Z,30.87
2018-09-29T09:31:19.078Z,28.08
2018-09-29T09:33:48.105Z,29.06
2018-09-29T09:36:17.052Z,28.80
2018-09-29T09:38:46.053Z,29.02
2018-09-29T09:41:15.018Z,28.73
2018-09-29T09:43:44.007Z,29.30
2018-09-29T09:46:13.248Z,28.98
2018-09-29T09:48:42.214Z,29.54
2018-09-29T09:51:11.175Z,29.91
2018-09-29T09:53:40.167Z,28.82
2018-09-29T09:56:09.232Z,29.28
2018-09-29T09:58:38.723Z,30.29
2018-09-29T10:01:13.051Z,28.47
2018-09-29T10:03:42.009Z,28.10
2018-09-29T10:06:11.011Z,28.15
2018-09-29T10:08:39.994Z,28.19
2018-09-29T10:11:09.039Z,27.83
2018-09-29T10:13:38.159Z,27.77
2018-09-29T10:16:07.307Z,28.55
2018-09-29T10:18:36.281Z,27.83
2018-09-29T10:21:05.251Z,27.69
2018-09-29T10:23:34.235Z,27.27
2018-09-29T10:26:03.187Z,27.42
2018-09-29T10:28:32.203Z,28.14
2018-09-29T10:31:01.175Z,28.19
2018-09-29T10:33:30.129Z,26.69
2018-09-29T10:35:59.120Z,26.91
2018-09-29T10:38:28.178Z,27.17
2018-09-29T10:40:57.174Z,28.06
2018-09-29T10:43:26.135Z,28.41
2018-09-29T10:45:55.112Z,28.42
2018-09-29T10:48:24.074Z,27.79
2018-09-29T10:50:53.019Z,28.14
2018-09-29T10:53:22.026Z,28.07
2018-09-29T10:55:50.972Z,28.01
2018-09-29T10:58:20.046Z,28.90
2018-09-29T11:00:49.012Z,28.68
2018-09-29T11:03:17.963Z,28.43
2018-09-29T11:05:46.938Z,28.37
2018-09-29T11:08:15.903Z,28.32
2018-09-29T11:10:44.972Z,27.60
2018-09-29T11:13:13.914Z,27.63
2018-09-29T11:15:42.858Z,27.60
2018-09-29T11:18:11.815Z,28.86
2018-09-29T11:20:40.795Z,28.37
2018-09-29T11:23:09.753Z,26.55
2018-09-29T11:25:38.729Z,25.37
2018-09-29T11:28:07.780Z,24.43
2018-09-29T11:30:36.684Z,24.41
2018-09-29T11:33:05.724Z,24.45
2018-09-29T11:35:34.670Z,23.30
2018-09-29T11:38:03.624Z,21.95
2018-09-29T11:40:32.715Z,21.81
2018-09-29T11:43:01.667Z,19.38
2018-09-29T11:45:30.679Z,19.76
2018-09-29T11:47:59.679Z,17.99
2018-09-29T11:50:28.751Z,18.46
2018-09-29T11:52:57.821Z,17.13
2018-09-29T11:55:26.867Z,15.75
2018-09-29T11:57:55.911Z,14.80
2018-09-29T12:00:24.885Z,14.26
2018-09-29T12:02:54.123Z,15.03
2018-09-29T12:05:23.127Z,12.65
2018-09-29T12:07:52.163Z,13.37
2018-09-29T12:10:21.126Z,12.70
2018-09-29T12:12:50.139Z,14.19
2018-09-29T12:15:19.122Z,13.67
2018-09-29T12:17:48.126Z,15.17
2018-09-29T12:20:17.143Z,15.44
2018-09-29T12:22:46.150Z,16.91
2018-09-29T12:25:15.115Z,18.97
2018-09-29T12:27:44.062Z,21.36
2018-09-29T12:30:13.059Z,21.78
2018-09-29T12:32:42.048Z,21.20
2018-09-29T12:35:11.100Z,20.67
2018-09-29T12:37:40.091Z,21.42
2018-09-29T12:40:09.064Z,22.32
2018-09-29T12:42:38.140Z,23.08
2018-09-29T12:45:07.334Z,25.05
2018-09-29T12:47:36.399Z,23.29
2018-09-29T12:50:05.386Z,22.12
2018-09-29T12:52:34.358Z,22.18
2018-09-29T12:55:03.337Z,22.36
2018-09-29T12:57:32.366Z,22.07
2018-09-29T13:00:01.353Z,22.88
2018-09-29T13:02:30.371Z,23.55
2018-09-29T13:04:59.445Z,24.23
2018-09-29T13:07:28.472Z,23.56
2018-09-29T13:09:57.499Z,22.59
2018-09-29T13:12:26.482Z,23.70
2018-09-29T13:14:55.520Z,22.74
2018-09-29T13:17:24.504Z,22.89
2018-09-29T13:19:53.614Z,22.84
2018-09-29T13:22:22.571Z,24.52
2018-09-29T13:24:51.538Z,25.08
2018-09-29T13:27:20.530Z,25.96
2018-09-29T13:29:49.475Z,25.68
2018-09-29T13:32:18.522Z,24.00
2018-09-29T13:34:47.493Z,25.37
2018-09-29T13:37:16.515Z,23.97
2018-09-29T13:39:45.487Z,24.65
2018-09-29T13:42:14.481Z,24.50
2018-09-29T13:44:43.511Z,24.81
2018-09-29T13:47:12.481Z,24.33
2018-09-29T13:49:41.452Z,24.30
2018-09-29T13:52:10.488Z,24.43
2018-09-29T13:54:39.474Z,25.43
2018-09-29T13:57:08.457Z,25.00
2018-09-29T13:59:37.461Z,25.07
2018-09-29T14:02:06.479Z,24.33
2018-09-29T14:04:35.522Z,25.34
2018-09-29T14:07:04.531Z,26.19
2018-09-29T14:09:33.477Z,25.58
2018-09-29T14:12:02.478Z,24.93
2018-09-29T14:14:31.467Z,25.36
2018-09-29T14:17:00.451Z,25.56
2018-09-29T14:19:29.436Z,25.42
2018-09-29T14:21:58.446Z,25.62
2018-09-29T14:24:27.409Z,25.17
2018-09-29T14:26:56.527Z,26.04
2018-09-29T14:29:25.475Z,24.99
2018-09-29T14:31:54.433Z,25.56
2018-09-29T14:34:23.448Z,25.89
2018-09-29T14:36:52.571Z,24.59
2018-09-29T14:39:21.543Z,25.43
2018-09-29T14:41:50.522Z,25.92
2018-09-29T14:44:19.494Z,26.23
2018-09-29T14:46:48.463Z,26.65
2018-09-29T14:49:17.487Z,27.17
2018-09-29T14:51:46.458Z,27.26
2018-09-29T14:54:15.444Z,26.69
2018-09-29T14:56:44.458Z,28.10
2018-09-29T14:59:18.394Z,29.07
2018-09-29T15:01:47.447Z,28.82
2018-09-29T15:04:16.500Z,28.17
2018-09-29T15:06:45.492Z,27.70
2018-09-29T15:09:14.507Z,28.46
2018-09-29T15:11:43.477Z,26.81
2018-09-29T15:14:12.516Z,28.40
2018-09-29T15:16:41.668Z,27.60
2018-09-29T15:19:10.671Z,30.01
2018-09-29T15:21:39.662Z,30.31
2018-09-29T15:24:08.673Z,29.62
2018-09-29T15:26:41.200Z,30.11
2018-09-29T15:29:10.287Z,29.67
2018-09-29T15:31:39.317Z,30.25
2018-09-29T15:34:08.319Z,30.84
2018-09-29T15:36:37.326Z,31.86
2018-09-29T15:39:09.597Z,31.41
2018-09-29T15:41:38.590Z,33.58
2018-09-29T15:44:07.708Z,33.92
2018-09-29T15:46:36.744Z,34.12
2018-09-29T15:49:05.882Z,35.04
2018-09-29T15:51:34.982Z,35.61
2018-09-29T15:54:03.979Z,35.11
2018-09-29T15:56:32.957Z,37.06
2018-09-29T15:59:01.899Z,39.06
2018-09-29T16:01:30.931Z,39.18
2018-09-29T16:03:59.876Z,39.44
2018-09-29T16:06:28.884Z,40.60
2018-09-29T16:08:57.871Z,42.08
2018-09-29T16:11:26.833Z,42.49
2018-09-29T16:13:55.784Z,44.84
2018-09-29T16:16:24.756Z,46.11
2018-09-29T16:18:53.707Z,47.36
2018-09-29T16:21:22.669Z,47.87
2018-09-29T16:23:51.926Z,47.92
2018-09-29T16:26:20.908Z,47.67
2018-09-29T16:28:49.874Z,48.00
2018-09-29T16:31:18.962Z,48.62
2018-09-29T16:33:47.887Z,49.19
2018-09-29T16:36:16.886Z,49.75
2018-09-29T16:38:45.845Z,49.68
2018-09-29T16:41:14.783Z,51.52
2018-09-29T16:43:43.785Z,50.79
2018-09-29T16:46:12.693Z,54.07
2018-09-29T16:48:41.638Z,51.41
2018-09-29T16:51:10.635Z,53.49
2018-09-29T16:53:39.655Z,51.23
2018-09-29T16:56:08.815Z,52.82
2018-09-29T16:58:37.852Z,53.08
2018-09-29T17:01:07.163Z,51.28
2018-09-29T17:03:36.170Z,50.82
2018-09-29T17:06:05.110Z,51.22
2018-09-29T17:08:34.088Z,51.30
2018-09-29T17:11:03.033Z,51.50
2018-09-29T17:13:31.991Z,52.24
2018-09-29T17:16:01.073Z,53.02
2018-09-29T17:18:29.919Z,54.23
2018-09-29T17:20:58.847Z,54.63
2018-09-29T17:23:27.835Z,54.51
2018-09-29T17:25:56.795Z,53.83
2018-09-29T17:28:25.726Z,54.37
2018-09-29T17:30:54.744Z,53.88
2018-09-29T17:33:23.679Z,54.92
2018-09-29T17:35:52.624Z,56.53
2018-09-29T17:38:21.562Z,56.34
2018-09-29T17:40:50.570Z,55.62
2018-09-29T17:43:19.511Z,54.30
2018-09-29T17:45:48.465Z,54.65
2018-09-29T17:48:17.441Z,58.79
2018-09-29T17:50:46.402Z,60.48
2018-09-29T17:53:15.481Z,61.97
2018-09-29T17:55:44.630Z,63.53
2018-09-29T17:58:13.599Z,64.81
2018-09-29T18:00:42.614Z,65.54
2018-09-29T18:03:11.616Z,67.54
2018-09-29T18:05:40.686Z,67.98
2018-09-29T18:08:09.699Z,69.48
2018-09-29T18:10:38.710Z,70.76
2018-09-29T18:13:07.671Z,71.48
2018-09-29T18:15:36.674Z,71.93
2018-09-29T18:18:05.666Z,72.68
2018-09-29T18:20:34.664Z,72.90
2018-09-29T18:23:03.743Z,73.98
2018-09-29T18:25:32.719Z,73.73
2018-09-29T18:28:01.746Z,75.20
2018-09-29T18:30:30.726Z,75.28
2018-09-29T18:32:59.686Z,75.07
2018-09-29T18:35:28.670Z,75.93
2018-09-29T18:38:12.400Z,76.04
2018-09-29T18:40:41.428Z,76.67
2018-09-29T18:43:10.370Z,76.92
2018-09-29T18:45:39.381Z,76.18
2018-09-29T18:48:08.367Z,78.24
2018-09-29T18:50:37.307Z,78.06
2018-09-29T18:53:06.275Z,78.11
2018-09-29T18:55:35.224Z,78.80
2018-09-29T18:58:04.234Z,78.79
2018-09-29T19:00:33.169Z,79.54
2018-09-29T19:03:02.115Z,79.57
2018-09-29T19:05:31.086Z,80.26
2018-09-29T19:08:00.096Z,81.14
2018-09-29T19:10:29.062Z,80.46
2018-09-29T19:12:58.045Z,80.73
2018-09-29T19:15:27.015Z,81.05
2018-09-29T19:17:55.947Z,80.77
2018-09-29T19:20:24.888Z,81.11
2018-09-29T19:22:53.827Z,81.80
2018-09-29T19:25:22.786Z,81.67
2018-09-29T19:27:51.724Z,82.33
2018-09-29T19:30:20.749Z,82.23
2018-09-29T19:32:49.694Z,82.34
2018-09-29T19:35:18.641Z,82.60
2018-09-29T19:37:47.620Z,82.03
2018-09-29T19:40:16.576Z,82.54
2018-09-29T19:42:45.570Z,82.22
2018-09-29T19:45:14.533Z,82.03
2018-09-29T19:47:43.507Z,82.53
2018-09-29T19:50:12.454Z,82.83
2018-09-29T19:52:41.530Z,82.42
2018-09-29T19:55:10.622Z,82.65
2018-09-29T19:57:39.607Z,82.70
2018-09-29T20:00:08.639Z,83.53
2018-09-29T20:02:37.577Z,83.70
2018-09-29T20:05:06.694Z,83.36
2018-09-29T20:07:35.724Z,83.95
2018-09-29T20:10:04.800Z,83.98
2018-09-29T20:12:33.759Z,84.54
2018-09-29T20:15:02.933Z,83.94
2018-09-29T20:17:31.858Z,85.04
2018-09-29T20:20:00.794Z,85.74
2018-09-29T20:22:29.735Z,85.57
2018-09-29T20:24:58.688Z,86.08
2018-09-29T20:27:27.693Z,86.69
2018-09-29T20:29:56.663Z,86.49
2018-09-29T20:32:25.631Z,86.59
2018-09-29T20:34:54.637Z,87.37
2018-09-29T20:37:23.750Z,87.44
2018-09-29T20:39:52.680Z,87.08
2018-09-29T20:42:21.613Z,86.93
2018-09-29T20:44:50.577Z,87.34
2018-09-29T20:47:19.572Z,86.93
2018-09-29T20:49:48.533Z,87.09
2018-09-29T20:52:17.514Z,87.52
2018-09-29T20:54:46.503Z,86.41
2018-09-29T20:57:15.486Z,87.01
2018-09-29T20:59:44.524Z,87.67
2018-09-29T21:02:13.484Z,87.71
2018-09-29T21:04:42.431Z,87.29
2018-09-29T21:07:11.697Z,86.74
2018-09-29T21:09:40.688Z,86.23
2018-09-29T21:12:09.696Z,84.55
2018-09-29T21:14:38.640Z,84.49
2018-09-29T21:17:07.638Z,84.04
2018-09-29T21:19:36.656Z,84.09
2018-09-29T21:22:05.680Z,84.27
2018-09-29T21:24:34.636Z,84.50
2018-09-29T21:27:03.599Z,83.90
2018-09-29T21:29:32.586Z,83.70
2018-09-29T21:32:01.543Z,83.90
2018-09-29T21:34:30.499Z,84.37
2018-09-29T21:36:59.475Z,83.38
2018-09-29T21:39:28.452Z,83.43
2018-09-29T21:41:57.395Z,83.55
2018-09-29T21:44:26.389Z,83.50
2018-09-29T21:46:55.343Z,83.70
2018-09-29T21:49:24.318Z,83.96
2018-09-29T21:51:53.267Z,83.74
2018-09-29T21:54:22.206Z,83.65
2018-09-29T21:56:51.198Z,83.72
2018-09-29T21:59:20.135Z,83.71
2018-09-29T22:01:49.104Z,83.48
2018-09-29T22:04:18.044Z,83.60
2018-09-29T22:06:47.939Z,83.54
2018-09-29T22:09:22.445Z,82.75
2018-09-29T22:11:52.026Z,83.54
2018-09-29T22:14:20.973Z,83.58
2018-09-29T22:16:49.930Z,83.00
2018-09-29T22:19:18.917Z,83.67
2018-09-29T22:21:47.867Z,83.13
2018-09-29T22:24:16.862Z,84.11
2018-09-29T22:26:45.802Z,82.99
2018-09-29T22:29:14.749Z,83.74
2018-09-29T22:31:43.785Z,83.17
2018-09-29T22:34:12.786Z,82.82
2018-09-29T22:36:41.719Z,83.67
2018-09-29T22:39:11.934Z,83.40
2018-09-29T22:41:40.901Z,83.06
2018-09-29T22:44:09.854Z,83.38
2018-09-29T22:46:38.799Z,82.93
2018-09-29T22:49:07.772Z,83.12
2018-09-29T22:51:36.750Z,82.82
2018-09-29T22:54:05.743Z,83.56
2018-09-29T22:56:34.785Z,82.96
2018-09-29T22:59:03.714Z,83.73
2018-09-29T23:01:32.674Z,83.32
2018-09-29T23:04:01.618Z,83.37
2018-09-29T23:06:30.548Z,83.66
2018-09-29T23:08:59.508Z,82.17
2018-09-29T23:11:28.470Z,82.92
2018-09-29T23:13:57.455Z,82.47
2018-09-29T23:16:26.414Z,82.74
2018-09-29T23:18:55.499Z,82.91
2018-09-29T23:21:24.450Z,82.58
2018-09-29T23:23:53.387Z,83.40
2018-09-29T23:26:22.345Z,82.97
2018-09-29T23:28:51.282Z,83.03
2018-09-29T23:31:20.238Z,83.38
2018-09-29T23:33:49.178Z,82.99
2018-09-29T23:36:18.136Z,83.25
2018-09-29T23:38:47.054Z,83.21
2018-09-29T23:41:16.067Z,83.10
2018-09-29T23:43:45.044Z,82.88
2018-09-29T23:46:14.010Z,82.62
2018-09-29T23:48:42.955Z,82.62
2018-09-29T23:51:11.890Z,82.92
2018-09-29T23:53:40.869Z,82.35
2018-09-29T23:56:09.816Z,83.15
2018-09-29T23:58:38.806Z,82.68
